Weather observations for the past three days for
Mount Carmel, Mount Carmel Municipal Airport
Metric (Imperial)
Date Time (cdt) Wind (kph) Vis. (km) Weather Sky Cond. Temperature (ºC) Relative Humidity Wind Chill (°C) Heat Index (°C) Pressure Precipitation (cm)
Air Dwpt 6 hour altimeter (cm) sea level (mb) 1 hr 3 hr 6 hr
Max. Min.
04 22:35 S 31 16.09 Thunderstorm in Vicinity SCT100 21.6 8.6 43% 75.44 0.0
04 22:15 S 24 G 35 16.09 Partly Cloudy SCT100 21.7 8.6 43% 75.44 0.0
04 21:55 S 26 16.09 Partly Cloudy SCT120 22.1 8.6 42% 75.46 0.0
04 21:35 S 24 16.09 Mostly Cloudy SCT100 BKN120 21.9 9 44% 75.44 0.0
04 21:15 SW 28 16.09 Light Rain SCT095 BKN120 22.5 8.7 41% 75.49 0.0
04 20:55 SW 30 16.09 Light Rain SCT110 22.6 8.3 40% 75.44 0.0
04 20:35 SW 28 G 37 16.09 Partly Cloudy SCT110 23.2 7.4 36% 75.44 0.0
04 20:15 SW 26 G 44 16.09 Fair CLR 23.2 7.4 36% 75.39 0.0
04 19:55 SW 30 G 44 16.09 Fair CLR 23.1 7.8 38% 75.36 0.0
04 19:35 S 35 16.09 Fair and Breezy CLR 23.4 7.6 36% 75.31 0.0
04 19:15 S 31 G 48 16.09 Fair CLR 23.8 7.6 36% 75.31 0.0
04 18:35 S 28 G 46 16.09 Fair CLR 24.8 8.3 35% 25 75.31 0.0
04 18:15 S 33 G 44 16.09 Fair and Breezy CLR 25.3 8.1 34% 26 75.31 0.0
04 17:55 S 28 G 48 16.09 Fair CLR 24.3 8.3 36% 25 75.31 0.0
04 17:35 S 35 G 52 16.09 Fair and Breezy CLR 24.5 8.2 35% 25 75.36 0.0
04 17:15 S 35 G 41 16.09 Fair and Breezy CLR 24.2 9.1 38% 25 75.36 0.0
04 16:55 S 41 G 48 16.09 Partly Cloudy and Breezy SCT120 24 9.3 39% 25 75.36 0.0
04 16:35 S 39 G 46 16.09 Mostly Cloudy and Breezy SCT075 SCT100 BKN120 23.7 10.1 42% 75.46 0.0
04 16:15 S 28 G 33 16.09 Partly Cloudy SCT050 SCT085 SCT090 23.5 10.4 44% 75.49 0.0
04 15:55 S 22 G 28 16.09 Partly Cloudy SCT120 23.7 10.5 43% 75.54 0.0
04 15:35 S 15 16.09 Fair CLR 24.1 10 41% 25 75.57 0.0
04 14:55 SW 28 16.09 Partly Cloudy SCT100 SCT120 24.6 9.7 39% 25 75.59 0.0
04 14:35 S 33 G 44 16.09 Mostly Cloudy and Breezy BKN110 24.5 9.3 38% 25 75.57 0.0
04 14:15 S 31 G 43 16.09 Fair CLR 24.7 10.7 41% 26 75.51 0.0
04 13:55 S 39 G 52 16.09 Fair and Breezy CLR 25.4 10.4 39% 26 75.54 0.0
04 13:35 S 43 G 52 16.09 Fair and Windy CLR 26 11.3 40% 26 75.54 0.0
04 13:15 S 43 G 50 16.09 Fair and Windy CLR 26.1 12.1 42% 26 75.57 0.0
04 12:55 S 31 G 43 16.09 Fair CLR 25.5 12.2 25.5 14.9 44% 26 75.59 0.0
04 12:35 S 33 G 41 16.09 Fair and Breezy CLR 25.2 12.7 46% 26 75.62 0.0
04 12:15 S 28 G 41 16.09 Fair CLR 24.7 12.6 47% 26 75.64 0.0
04 11:55 SW 28 G 43 16.09 Partly Cloudy SCT120 24.8 12.6 47% 26 75.64 0.0
04 11:35 SW 28 G 39 16.09 Mostly Cloudy BKN120 23.8 12.8 50% 75.64 0.0
04 11:15 S 26 G 35 16.09 Partly Cloudy SCT120 23.3 13.2 53% 75.67 0.0
04 10:55 S 24 16.09 Partly Cloudy SCT120 22.1 13.3 58% 75.67 0.0
04 10:35 S 31 G 39 16.09 Partly Cloudy SCT110 21.3 12.4 57% 75.67 0.0
04 10:15 S 28 G 41 16.09 Partly Cloudy SCT110 21 12.5 58% 75.67 0.0
04 09:55 S 28 G 46 16.09 Fair CLR 20.7 12.4 59% 75.67 0.0
04 09:35 S 31 G 39 16.09 Mostly Cloudy BKN110 20.1 12.6 62% 75.67 0.0
04 09:15 S 26 16.09 Mostly Cloudy BKN110 19.3 12.3 64% 75.69 0.0
04 08:55 S 26 G 33 16.09 Mostly Cloudy BKN110 18.5 12.1 66% 75.69 0.0
04 08:35 S 22 16.09 Mostly Cloudy BKN110 17.8 12.4 71% 75.72 0.0
04 08:15 S 20 16.09 Mostly Cloudy BKN110 16.8 12.5 76% 75.72 0.0
04 07:55 S 20 16.09 Mostly Cloudy BKN110 16.1 12.2 78% 75.74 0.0
04 07:35 S 17 16.09 Mostly Cloudy BKN110 15.6 12.6 82% 75.74 0.0
04 07:15 S 19 16.09 Overcast OVC110 15.5 12.2 81% 75.74 0.0
04 06:55 S 17 16.09 Mostly Cloudy BKN110 14.8 12.2 16.5 13.7 85% 75.74 0.0 0.23
04 06:35 S 20 16.09 Partly Cloudy SCT120 14.2 12.6 90% 75.72 0.0
04 06:15 S 22 16.09 Partly Cloudy SCT100 13.7 12.6 93% 75.72 0.0
04 05:55 S 9 16.09 Overcast OVC100 14.3 12 86% 75.74 0.0 0.05
04 05:35 Calm 16.09 Overcast SCT080 OVC100 14.4 12.1 86% 75.77 0.0 0.05
04 05:15 SE 17 16.09 Thunderstorm Light Rain in Vicinity SCT070 OVC090 14.5 12.5 88% 75.74 0.0 0.05
04 04:55 S 7 G 19 16.09 Thunderstorm Light Rain in Vicinity SCT034 BKN080 OVC090 15.1 11.8 81% 75.82 0.0 0.08
04 04:35 W 31 8.05 Thunderstorm Heavy Rain SCT034 BKN070 OVC090 14.6 12.5 87% 75.95 0.0 0.03
04 04:15 S 17 16.09 Thunderstorm in Vicinity SCT044 SCT060 OVC090 15 12 82% 75.72 0.0 0.03
04 03:55 S 17 16.09 Rain OVC080 15.4 11.9 80% 75.82 0.0 0.1 0.1
04 03:35 W 22 16.09 Thunderstorm Light Rain in Vicinity SCT065 OVC080 15.5 11.7 78% 75.87 0.0 0.05
04 03:15 W 28 16.09 Rain BKN085 OVC100 15.5 11.3 76% 75.84 0.0
04 02:55 W 44 G 54 16.09 Light Rain and Windy BKN095 OVC120 16.4 9.2 63% 75.82 0.0
04 02:35 S 15 16.09 Partly Cloudy SCT095 SCT120 15.4 7.9 61% 75.77 0.0
04 02:15 SW 6 16.09 Light Rain SCT085 BKN110 15.2 7.7 61% 75.77 0.0
04 01:55 S 13 16.09 Partly Cloudy SCT090 SCT120 15.3 7.2 59% 75.77 0.0
04 01:35 S 11 16.09 Mostly Cloudy BKN090 14.9 7.4 61% 75.77 0.0
04 01:15 S 13 16.09 Mostly Cloudy BKN090 15 7.4 61% 75.77 0.0
04 00:55 S 15 16.09 Mostly Cloudy BKN100 14.8 7.6 19.8 14.2 62% 75.79 0.0
04 00:35 S 13 16.09 Partly Cloudy SCT100 14.5 7.6 64% 75.82 0.0
04 00:15 S 13 16.09 Fair CLR 14.3 7.9 66% 75.82 0.0
03 23:55 S 11 16.09 Partly Cloudy SCT080 15 7.6 62% 75.84 0.0
03 23:35 S 13 16.09 Thunderstorm BKN080 BKN120 16 7.2 56% 75.84 0.0
03 23:15 S 13 16.09 Thunderstorm Light Rain in Vicinity BKN080 BKN110 16.8 6.6 51% 75.9 0.0
03 22:55 S 17 16.09 Mostly Cloudy SCT090 BKN120 16.1 7 55% 75.87 0.0
03 22:35 S 13 16.09 Mostly Cloudy BKN110 15.7 7.2 57% 75.9 0.0
03 22:15 S 20 G 26 16.09 Partly Cloudy SCT085 SCT110 16.1 7.1 55% 75.92 0.0
03 21:55 S 15 16.09 Light Rain SCT065 BKN090 OVC110 17.3 5.7 47% 75.92 0.0
03 21:35 S 17 16.09 Mostly Cloudy SCT100 BKN120 17.1 5.5 47% 75.87 0.0
03 21:15 S 17 16.09 Thunderstorm in Vicinity SCT110 16.6 5.5 48% 75.9 0.0
03 20:55 S 17 16.09 Fair CLR 16.8 5.1 46% 75.87 0.0
03 20:35 S 15 16.09 Fair CLR 16.7 5.3 47% 75.9 0.0
03 20:15 S 17 16.09 Fair CLR 17.5 4.8 43% 75.9 0.0
03 19:55 S 17 16.09 Fair CLR 18.3 4.6 41% 75.9 0.0
03 19:35 S 15 16.09 Fair CLR 18.6 4.7 40% 75.92 0.0
03 19:15 S 17 16.09 Fair CLR 19.2 4.5 38% 75.95 0.0
03 18:55 S 15 16.09 Fair CLR 19.9 3.9 21 17.7 35% 75.95 0.0
03 18:35 S 26 16.09 Fair CLR 20.2 3.1 32% 75.92 0.0
03 18:15 SW 30 G 37 16.09 Fair CLR 20.5 3.1 32% 75.92 0.0
03 17:55 S 37 16.09 Fair and Breezy CLR 20.7 3.6 33% 75.9 0.0
03 17:35 S 31 G 46 16.09 Fair CLR 20.7 3.6 33% 75.92 0.0
03 17:15 S 33 G 48 16.09 Fair and Breezy CLR 20.6 3.8 33% 75.92 0.0
03 16:55 S 41 G 50 16.09 Fair and Breezy CLR 20.8 3.2 31% 75.92 0.0
03 16:35 S 33 G 46 16.09 Fair and Breezy CLR 20.5 3.5 33% 75.97 0.0
03 16:15 S 31 16.09 Fair CLR 20.3 3.5 33% 76.02 0.0
03 15:55 S 37 G 46 16.09 Fair and Breezy CLR 20.4 3.9 34% 76.07 0.0
03 15:35 S 39 G 48 16.09 Fair and Breezy CLR 20 3.6 34% 76.1 0.0
03 15:15 S 35 G 46 16.09 Fair and Breezy CLR 20.2 4.1 35% 76.15 0.0
03 14:55 S 39 G 46 16.09 Fair and Breezy CLR 20 3.9 35% 76.17 0.0
03 14:35 S 31 G 37 16.09 Fair CLR 19.6 3.9 36% 76.2 0.0
03 14:15 S 26 G 46 16.09 Fair CLR 19.8 2.6 32% 76.2 0.0
03 13:55 S 37 G 43 16.09 Fair and Breezy CLR 19.4 2.7 33% 76.25 0.0
03 13:35 SW 30 G 39 16.09 Fair CLR 19.1 2.8 34% 76.3 0.0
03 13:15 SW 30 G 41 16.09 Partly Cloudy SCT049 18.7 4.2 38% 76.33 0.0
03 12:55 S 24 G 37 16.09 Partly Cloudy SCT049 17.7 4 17.9 7.4 40% 76.38 0.0
03 12:35 SW 30 G 43 16.09 Partly Cloudy SCT045 17.6 4.6 42% 76.4 0.0
03 12:15 S 39 G 44 16.09 Partly Cloudy and Breezy SCT045 17.2 4.7 44% 76.43 0.0
03 11:55 S 28 G 37 16.09 Fair CLR 16.9 4.5 44% 76.45 0.0
03 11:35 S 33 16.09 Fair and Breezy CLR 16.4 4.2 45% 76.48 0.0
03 11:15 SW 30 G 39 16.09 Fair CLR 16.4 3.4 42% 76.48 0.0
03 10:55 SW 22 G 28 16.09 Fair CLR 15.8 3.9 45% 76.5 0.0
03 10:35 SW 28 16.09 Fair CLR 15.4 4.4 48% 76.53 0.0
03 10:15 SW 24 16.09 Fair CLR 15.3 4.2 48% 76.5 0.0
03 09:55 S 28 16.09 Fair CLR 14.7 4 49% 76.53 0.0
03 09:35 S 26 16.09 Fair CLR 13.9 4.7 54% 76.53 0.0
03 09:15 S 30 G 37 16.09 Fair CLR 13.3 4.7 56% 76.53 0.0
03 08:55 SW 20 16.09 Fair CLR 13 5.9 62% 76.56 0.0
03 08:35 S 22 16.09 Fair CLR 12.3 5.3 63% 76.53 0.0
03 08:15 S 15 16.09 Fair CLR 11.5 6 69% 76.53 0.0
03 07:55 S 15 16.09 Fair CLR 10.6 5.9 73% 76.53 0.0
03 07:35 S 13 16.09 Fair CLR 9.8 6.1 78% 8 76.56 0.0
03 07:15 S 7 16.09 Fair CLR 8.7 6 83% 8 76.56 0.0
03 06:55 Calm 16.09 Fair CLR 7.2 5.2 7.2 4.5 87% 76.53 0.0
03 06:35 Calm 16.09 Fair CLR 6.3 3.7 84% 76.53 0.0
03 06:15 Calm 16.09 Fair CLR 5.9 3.3 84% 76.53 0.0
03 05:55 Calm 16.09 Fair CLR 5.9 2.8 81% 76.5 0.0
03 05:35 Calm 16.09 Fair CLR 6.2 2.5 77% 76.5 0.0
03 05:15 Calm 16.09 Fair CLR 5.6 2.1 78% 76.5 0.0
03 04:55 Calm 16.09 Fair CLR 5.5 2.2 80% 76.5 0.0
03 04:35 Calm 16.09 Fair CLR 5.8 2.6 80% 76.5 0.0
03 04:15 Calm 16.09 Fair CLR 5.8 3 82% 76.5 0.0
03 03:55 Calm 16.09 Fair CLR 5.6 3.7 88% 76.5 0.0
03 03:35 Calm 16.09 Fair CLR 5 4.6 97% 76.53 0.0
03 03:15 Calm 16.09 Fair CLR 5 4.5 97% 76.5 0.0
03 02:55 Calm 16.09 Fair CLR 4.8 4.5 98% 76.5 0.0
03 02:35 Calm 16.09 Fair CLR 4.5 4.1 97% 76.5 0.0
03 02:15 Calm 16.09 Fair CLR 5.2 4.8 97% 76.5 0.0
03 01:55 Calm 16.09 Fair CLR 5 4.6 97% 76.5 0.0
03 01:35 Calm 16.09 Fair CLR 5 4.5 97% 76.5 0.0
03 01:15 Calm 16.09 Fair CLR 5 4.4 96% 76.53 0.0
03 00:55 Calm 16.09 Fair CLR 5.7 4.5 13.5 5.6 92% 76.53 0.0
03 00:35 Calm 16.09 Fair CLR 6 4.4 90% 76.53 0.0
03 00:15 Calm 16.09 Fair CLR 6 4.5 90% 76.53 0.0
02 23:55 Calm 16.09 Fair CLR 5.7 4.1 90% 76.53 0.0
02 23:35 Calm 16.09 Fair CLR 6.1 4 87% 76.53 0.0
02 23:15 Calm 16.09 Fair CLR 6.4 3.8 84% 76.53 0.0
02 22:55 Calm 16.09 Fair CLR 6.6 4.1 84% 76.53 0.0
02 22:35 Calm 16.09 Fair CLR 7 5 87% 76.53 0.0
02 22:15 Calm 16.09 Fair CLR 7.3 4.5 83% 76.53 0.0
02 21:55 Calm 16.09 Fair CLR 8 4.1 77% 76.53 0.0
02 21:35 Calm 16.09 Fair CLR 7.7 4 78% 76.5 0.0
02 21:15 Calm 16.09 Fair CLR 8.3 4.2 76% 76.5 0.0
02 20:55 Calm 16.09 Fair CLR 8.6 3.9 73% 76.48 0.0
02 20:35 Calm 16.09 Fair CLR 10.8 0.6 50% 76.48 0.0
02 20:15 Calm 16.09 Fair CLR 10.8 1 51% 76.45 0.0
02 19:55 Calm 16.09 Fair CLR 11.8 0.5 46% 76.43 0.0
02 19:35 N 7 16.09 Fair CLR 12 0.5 46% 76.43 0.0
02 19:15 N 11 16.09 Fair CLR 13 -0.1 41% 76.43 0.0
02 18:55 N 13 16.09 Partly Cloudy SCT075 13.5 -0.5 15.2 11.7 38% 76.4 0.0
02 18:35 N 11 16.09 Fair CLR 14 -0.9 36% 76.4 0.0
02 18:15 NW 15 16.09 Partly Cloudy SCT070 14 -0.5 37% 76.4 0.0
02 17:55 N 13 16.09 Mostly Cloudy BKN070 14 -1.1 36% 76.4 0.0
02 17:35 NW 22 16.09 Mostly Cloudy SCT070 BKN080 14.7 -0.2 36% 76.4 0.0
02 17:15 NW 19 16.09 Mostly Cloudy BKN080 14.1 0 38% 76.4 0.0
02 16:55 N 15 16.09 Overcast SCT060 OVC070 14.1 0.4 39% 76.4 0.0
02 16:35 NW 9 G 37 16.09 Mostly Cloudy SCT060 BKN070 14.3 0.7 40% 76.4 0.0
02 16:15 NW 17 16.09 Mostly Cloudy BKN060 BKN070 14 0.9 41% 76.4 0.0
02 15:55 NW 7 16.09 Mostly Cloudy SCT046 SCT065 BKN085 14.1 1.3 42% 76.4 0.0
02 15:35 NW 6 16.09 Overcast SCT040 BKN065 OVC085 13 3.8 54% 76.4 0.0
02 15:15 W 6 16.09 Overcast SCT040 BKN050 OVC065 12.6 4.3 57% 76.43 0.0
02 14:55 SW 6 16.09 Overcast SCT050 BKN065 OVC080 12.7 4.6 58% 76.43 0.0
02 14:35 Calm 16.09 Overcast BKN065 OVC080 12.5 3.4 54% 76.45 0.0
02 14:15 NW 6 16.09 Overcast SCT035 SCT065 OVC080 12.3 4.4 59% 76.45 0.0
02 13:55 Calm 16.09 Overcast SCT033 SCT043 OVC070 11.9 4.3 60% 76.48 0.0
02 13:35 NW 6 16.09 Overcast SCT033 BKN048 OVC060 11.9 4.3 60% 76.48 0.0
02 13:15 Calm 16.09 Overcast SCT034 BKN060 OVC065 12.1 4.2 59% 76.48 0.0
02 12:55 Calm 16.09 Overcast SCT044 BKN060 OVC095 12.2 4.2 12.3 9 58% 76.48 0.0
02 12:35 Calm 16.09 Mostly Cloudy SCT070 BKN095 11.6 3.8 59% 76.5 0.0
02 12:15 N 7 16.09 Partly Cloudy SCT095 11.2 5.3 67% 76.5 0.0
02 11:55 N 11 16.09 Overcast SCT070 OVC095 10.4 5.4 71% 76.53 0.0
02 11:35 NE 11 16.09 Overcast BKN070 OVC085 10 4.9 71% 9 76.53 0.0
02 11:15 NE 11 16.09 Overcast BKN070 OVC085 9.8 5.1 73% 8 76.53 0.0
02 10:55 NE 7 16.09 Light Drizzle OVC055 9.6 5.4 75% 9 76.53 0.0
02 10:35 NE 9 16.09 Light Rain BKN049 OVC055 9.7 5.1 73% 9 76.53 0.0
02 10:15 NE 11 16.09 Overcast BKN045 OVC050 9.9 5.5 74% 9 76.53 0.0
02 09:55 N 17 16.09 Overcast OVC043 9.6 5.5 76% 7 76.5 0.0
02 09:35 NE 13 16.09 Overcast OVC043 10.2 4.6 68% 76.48 0.0
02 09:15 NE 19 16.09 Overcast BKN043 OVC050 10 5.5 74% 8 76.48 0.0
02 08:55 NE 19 16.09 Overcast BKN043 OVC050 10 6.4 79% 8 76.48 0.0
02 08:35 NE 15 11.27 Light Drizzle OVC045 9.5 6.4 81% 8 76.48 0.0
02 08:15 NE 9 16.09 Light Rain OVC043 9.3 6.3 82% 8 76.48 0.0
02 07:55 N 6 16.09 Overcast SCT045 OVC050 9.5 6.6 82% 76.45 0.0
02 07:35 NE 7 16.09 Light Rain SCT046 OVC050 9.2 6.4 83% 8 76.43 0.0
02 07:15 NE 6 16.09 Light Rain BKN049 OVC070 9 6.5 85% 76.43 0.0
02 06:55 NE 7 16.09 Light Rain SCT049 OVC055 9 6.4 9.6 7.8 84% 8 76.4 0.0
02 06:35 NE 9 16.09 Overcast OVC049 8.9 6.5 85% 8 76.38 0.0
02 06:15 NE 11 16.09 Overcast BKN049 OVC055 8.9 6.5 85% 7 76.38 0.0
02 05:55 NE 6 16.09 Overcast BKN055 OVC100 8.6 6.5 87% 76.38 0.0
02 05:35 NE 7 16.09 Mostly Cloudy SCT055 BKN100 8.5 6.1 85% 8 76.35 0.0
02 05:15 NE 7 16.09 Mostly Cloudy BKN100 8.6 6.1 84% 8 76.35 0.0
02 04:55 NE 7 16.09 Light Drizzle SCT050 BKN100 OVC110 9.1 5.9 81% 8 76.33 0.0
02 04:35 N 7 16.09 Light Rain OVC050 9.2 6.1 81% 8 76.35 0.0
02 04:15 Calm 16.09 Light Rain OVC060 9.3 6.1 81% 76.35 0.0
02 03:55 Calm 16.09 Light Rain OVC060 9.2 6 81% 76.35 0.0
02 03:35 N 7 16.09 Overcast OVC060 9.2 5.6 78% 8 76.35 0.0
02 03:15 N 7 16.09 Overcast BKN070 OVC080 9 5.9 81% 8 76.35 0.0
02 02:55 Calm 16.09 Overcast OVC070 8.7 5.7 82% 76.35 0.0
02 02:35 Calm 16.09 Overcast OVC070 8 7 93% 76.35 0.0
02 02:15 Calm 16.09 Mostly Cloudy SCT070 BKN100 BKN110 7.9 6.6 92% 76.35 0.0
02 01:35 Calm 16.09 Mostly Cloudy SCT070 BKN110 7.9 6.2 89% 76.35 0.0
02 01:15 Calm 16.09 Partly Cloudy SCT080 8.3 5.5 83% 76.35 0.0
02 00:55 Calm 16.09 Partly Cloudy SCT080 8.3 5.6 14.3 8.3 83% 76.35 0.0
02 00:35 N 6 16.09 Fair CLR 9 5 76% 76.38 0.0
02 00:15 N 6 16.09 Partly Cloudy SCT090 SCT110 9.1 5.1 76% 76.38 0.0
01 23:55 Calm 16.09 Mostly Cloudy BKN090 8.5 6.2 86% 76.38 0.0
01 23:35 Calm 16.09 Partly Cloudy SCT100 8.8 5.2 78% 76.38 0.0
01 23:15 Calm 16.09 Fair CLR 9.4 4.6 72% 76.38 0.0
01 22:55 Calm 16.09 Fair CLR 9.3 5.5 77% 76.38 0.0
Date Time (cdt) Wind (kph) Vis. (km) Weather Sky Cond. Air Dwpt Max. Min. Relative Humidity Wind Chill (°C) Heat Index (°C) altimeter (cm) sea level (mb) 1 hr 3 hr 6 hr
6 hour
Temperature (ºC) Pressure Precipitation (cm)